createdAt,value
2018-02-10T00:00:22.597Z,76.5
2018-02-10T00:01:22.361Z,76.59
2018-02-10T00:02:22.619Z,75.07
2018-02-10T00:03:22.665Z,74.88
2018-02-10T00:04:22.649Z,73.84
2018-02-10T00:05:22.411Z,73.46
2018-02-10T00:06:22.690Z,73.65
2018-02-10T00:07:22.645Z,72.99
2018-02-10T00:08:22.707Z,74.03
2018-02-10T00:09:22.721Z,72.99
2018-02-10T00:10:22.737Z,72.61
2018-02-10T00:11:22.748Z,73.37
2018-02-10T00:12:22.511Z,73.18
2018-02-10T00:13:22.524Z,73.84
2018-02-10T00:14:22.789Z,73.84
2018-02-10T00:15:22.811Z,73.08
2018-02-10T00:16:22.817Z,73.65
2018-02-10T00:17:22.580Z,73.08
2018-02-10T00:18:22.850Z,73.18
2018-02-10T00:19:22.608Z,74.41
2018-02-10T00:20:22.883Z,73.84
2018-02-10T00:21:22.885Z,73.08
2018-02-10T00:22:22.648Z,73.08
2018-02-10T00:23:22.663Z,72.42
2018-02-10T00:24:22.929Z,72.04
2018-02-10T00:25:22.939Z,72.71
2018-02-10T00:26:22.704Z,72.42
2018-02-10T00:27:22.720Z,71.85
2018-02-10T00:28:22.744Z,72.04
2018-02-10T00:29:22.746Z,73.37
2018-02-10T00:30:22.758Z,72.52
2018-02-10T00:31:22.774Z,72.23
2018-02-10T00:32:23.042Z,72.23
2018-02-10T00:33:23.050Z,72.52
2018-02-10T00:34:23.066Z,73.18
2018-02-10T00:35:23.081Z,73.27
2018-02-10T00:36:23.094Z,73.75
2018-02-10T00:37:22.859Z,73.65
2018-02-10T00:38:23.123Z,72.99
2018-02-10T00:39:22.884Z,72.42
2018-02-10T00:40:22.900Z,73.27
2018-02-10T00:41:22.912Z,73.08
2018-02-10T00:42:22.925Z,72.42
2018-02-10T00:43:23.188Z,72.14
2018-02-10T00:44:23.207Z,72.89
2018-02-10T00:45:23.239Z,73.37
2018-02-10T00:46:23.230Z,73.18
2018-02-10T00:47:23.254Z,73.65
2018-02-10T00:48:23.264Z,74.03
2018-02-10T00:49:23.276Z,72.42
2018-02-10T00:50:23.289Z,72.8
2018-02-10T00:51:23.306Z,72.99
2018-02-10T00:52:23.064Z,72.52
2018-02-10T00:53:23.076Z,72.33
2018-02-10T00:54:23.091Z,72.29
2018-02-10T00:55:23.107Z,72.57
2018-02-10T00:56:23.370Z,73.71
2018-02-10T00:57:23.383Z,74.28
2018-02-10T00:58:23.398Z,74.47
2018-02-10T00:59:23.414Z,74.66
2018-02-10T01:00:23.173Z,74.95
2018-02-10T01:01:23.443Z,75.13
2018-02-10T01:02:23.454Z,75.13
2018-02-10T01:03:23.214Z,74.75
2018-02-10T01:04:23.480Z,74.47
2018-02-10T01:05:23.244Z,75.23
2018-02-10T01:06:23.506Z,75.79
2018-02-10T01:07:23.521Z,75.6
2018-02-10T01:08:23.286Z,75.42
2018-02-10T01:09:23.295Z,75.51
2018-02-10T01:10:23.564Z,75.79
2018-02-10T01:11:23.341Z,75.98
2018-02-10T01:12:23.619Z,76.74
2018-02-10T01:13:23.601Z,77.03
2018-02-10T01:14:23.616Z,77.4
2018-02-10T01:15:23.378Z,76.93
2018-02-10T01:16:23.639Z,77.31
2018-02-10T01:17:23.656Z,77.22
2018-02-10T01:18:23.674Z,77.69
2018-02-10T01:19:23.683Z,77.69
2018-02-10T01:20:23.694Z,77.88
2018-02-10T01:21:23.760Z,77.12
2018-02-10T01:22:23.723Z,77.97
2018-02-10T01:23:23.737Z,77.59
2018-02-10T01:24:23.747Z,77.31
2018-02-10T01:25:23.532Z,77.5
2018-02-10T01:26:23.780Z,77.59
2018-02-10T01:27:23.535Z,77.03
2018-02-10T01:28:23.801Z,77.69
2018-02-10T01:29:23.818Z,77.69
2018-02-10T01:30:23.830Z,77.78
2018-02-10T01:31:23.590Z,77.4
2018-02-10T01:32:23.909Z,77.5
2018-02-10T01:33:23.617Z,78.16
2018-02-10T01:34:23.881Z,77.69
2018-02-10T01:35:23.846Z,78.26
2018-02-10T01:36:24.021Z,78.16
2018-02-10T01:37:23.923Z,78.16
2018-02-10T01:38:23.937Z,78.07
2018-02-10T01:39:23.942Z,78.22
2018-02-10T01:40:23.714Z,78.88
2018-02-10T01:41:23.723Z,78.88
2018-02-10T01:42:24.020Z,79.45
2018-02-10T01:43:24.003Z,79.64
2018-02-10T01:44:24.014Z,80.49
2018-02-10T01:45:24.030Z,80.3
2018-02-10T01:46:24.039Z,80.02
2018-02-10T01:47:24.077Z,80.11
2018-02-10T01:48:23.819Z,80.77
2018-02-10T01:49:24.087Z,80.87
2018-02-10T01:50:24.141Z,80.49
2018-02-10T01:51:24.108Z,80.21
2018-02-10T01:52:24.120Z,80.68
2018-02-10T01:53:24.142Z,81.25
2018-02-10T01:54:24.146Z,81.25
2018-02-10T01:55:24.159Z,80.77
2018-02-10T01:56:23.921Z,80.87
2018-02-10T01:57:24.203Z,81.44
2018-02-10T01:58:24.197Z,81.72
2018-02-10T01:59:24.213Z,81.72
2018-02-10T02:00:23.973Z,82.01
2018-02-10T02:01:23.987Z,81.53
2018-02-10T02:02:24.248Z,81.82
2018-02-10T02:03:24.266Z,82.01
2018-02-10T02:04:24.277Z,82.01
2018-02-10T02:05:24.291Z,81.53
2018-02-10T02:06:24.051Z,81.44
2018-02-10T02:07:24.062Z,81.92
2018-02-10T02:08:24.337Z,81.06
2018-02-10T02:09:24.339Z,81.15
2018-02-10T02:10:24.358Z,81.15
2018-02-10T02:11:24.379Z,81.06
2018-02-10T02:12:24.384Z,81.82
2018-02-10T02:13:24.140Z,82.01
2018-02-10T02:14:24.408Z,81.92
2018-02-10T02:15:24.170Z,81.92
2018-02-10T02:16:24.435Z,81.92
2018-02-10T02:17:24.447Z,82.01
2018-02-10T02:18:24.207Z,82.01
2018-02-10T02:19:24.468Z,81.92
2018-02-10T02:20:24.481Z,81.92
2018-02-10T02:21:24.246Z,82.01
2018-02-10T02:22:24.507Z,81.63
2018-02-10T02:23:24.524Z,82.76
2018-02-10T02:24:24.283Z,82.39
2018-02-10T02:25:24.597Z,82.39
2018-02-10T02:26:24.563Z,82.57
2018-02-10T02:27:24.323Z,82.29
2018-02-10T02:28:24.337Z,82.1
2018-02-10T02:29:24.350Z,81.92
2018-02-10T02:30:24.634Z,81.72
2018-02-10T02:31:24.628Z,81.82
2018-02-10T02:32:24.648Z,82.2
2018-02-10T02:33:24.400Z,81.63
2018-02-10T02:34:24.671Z,81.92
2018-02-10T02:35:24.691Z,81.72
2018-02-10T02:36:24.695Z,81.82
2018-02-10T02:37:24.714Z,82.1
2018-02-10T02:38:24.469Z,81.72
2018-02-10T02:39:24.732Z,82.1
2018-02-10T02:40:24.745Z,82.14
2018-02-10T02:41:24.757Z,81.76
2018-02-10T02:42:24.771Z,81.2
2018-02-10T02:43:24.784Z,81.01
2018-02-10T02:44:24.799Z,80.91
2018-02-10T02:45:24.560Z,80.87
2018-02-10T02:46:24.823Z,81.29
2018-02-10T02:47:24.836Z,81.15
2018-02-10T02:48:24.854Z,81.06
2018-02-10T02:49:24.862Z,81.82
2018-02-10T02:50:24.878Z,81.25
2018-02-10T02:51:24.897Z,81.82
2018-02-10T02:52:24.900Z,82.01
2018-02-10T02:53:24.918Z,82.1
2018-02-10T02:54:24.682Z,82.01
2018-02-10T02:55:24.691Z,82.2
2018-02-10T02:56:24.951Z,81.82
2018-02-10T02:57:24.715Z,82.57
2018-02-10T02:58:24.727Z,82.57
2018-02-10T02:59:24.991Z,82.67
2018-02-10T03:00:24.761Z,82.67
2018-02-10T03:01:25.026Z,82.67
2018-02-10T03:02:25.030Z,82.29
2018-02-10T03:03:25.044Z,82.48
2018-02-10T03:04:25.059Z,82.29
2018-02-10T03:05:24.818Z,82.39
2018-02-10T03:06:24.836Z,82.57
2018-02-10T03:07:24.844Z,81.92
2018-02-10T03:08:25.125Z,82.29
2018-02-10T03:09:25.122Z,82.48
2018-02-10T03:10:25.134Z,82.95
2018-02-10T03:11:25.146Z,83.43
2018-02-10T03:12:24.907Z,83.33
2018-02-10T03:13:24.928Z,83.71
2018-02-10T03:14:24.934Z,83.62
2018-02-10T03:15:25.207Z,83.43
2018-02-10T03:16:25.203Z,83.14
2018-02-10T03:17:25.217Z,82.86
2018-02-10T03:18:25.230Z,82.76
2018-02-10T03:19:24.993Z,83.05
2018-02-10T03:20:25.255Z,82.48
2018-02-10T03:21:25.044Z,82.67
2018-02-10T03:22:25.041Z,82.95
2018-02-10T03:23:25.052Z,82.95
2018-02-10T03:24:25.317Z,82.57
2018-02-10T03:25:25.327Z,82.57
2018-02-10T03:26:25.090Z,82.67
2018-02-10T03:27:25.374Z,83.24
2018-02-10T03:28:25.365Z,82.86
2018-02-10T03:29:25.148Z,82.95
2018-02-10T03:30:25.417Z,83.05
2018-02-10T03:31:25.157Z,82.67
2018-02-10T03:32:25.421Z,83.05
2018-02-10T03:33:25.181Z,83.62
2018-02-10T03:34:25.188Z,83.43
2018-02-10T03:35:25.454Z,83.62
2018-02-10T03:36:25.213Z,83.62
2018-02-10T03:37:25.241Z,83.71
2018-02-10T03:38:25.494Z,83.58
2018-02-10T03:39:25.506Z,83.62
2018-02-10T03:40:25.517Z,83.81
2018-02-10T03:41:25.278Z,84
2018-02-10T03:42:25.544Z,83.9
2018-02-10T03:43:25.557Z,83.71
2018-02-10T03:44:25.570Z,82.48
2018-02-10T03:45:25.583Z,82.76
2018-02-10T03:46:25.343Z,82.95
2018-02-10T03:47:25.610Z,83.71
2018-02-10T03:48:25.620Z,83.43
2018-02-10T03:49:25.397Z,82.95
2018-02-10T03:50:25.656Z,82.95
2018-02-10T03:51:25.676Z,83.05
2018-02-10T03:52:25.420Z,82.29
2018-02-10T03:53:25.431Z,82.29
2018-02-10T03:54:25.445Z,82.01
2018-02-10T03:55:25.467Z,81.82
2018-02-10T03:56:25.482Z,82.48
2018-02-10T03:57:25.738Z,82.76
2018-02-10T03:58:25.747Z,82.48
2018-02-10T03:59:25.759Z,82.29
2018-02-10T04:00:25.777Z,82.67
2018-02-10T04:01:25.532Z,82.95
2018-02-10T04:02:25.798Z,82.57
2018-02-10T04:03:25.564Z,82.67
2018-02-10T04:04:25.824Z,83.43
2018-02-10T04:05:25.582Z,83.05
2018-02-10T04:06:25.848Z,82.76
2018-02-10T04:07:25.861Z,82.86
2018-02-10T04:08:25.878Z,82.57
2018-02-10T04:09:25.636Z,82.86
2018-02-10T04:10:25.648Z,83.43
2018-02-10T04:11:25.663Z,82.67
2018-02-10T04:12:25.928Z,82.95
2018-02-10T04:13:25.943Z,83.05
2018-02-10T04:14:25.700Z,83.71
2018-02-10T04:15:25.964Z,83.43
2018-02-10T04:16:25.724Z,83.52
2018-02-10T04:17:25.995Z,83.43
2018-02-10T04:18:25.749Z,82.95
2018-02-10T04:19:26.012Z,82.95
2018-02-10T04:20:26.037Z,82.95
2018-02-10T04:21:26.039Z,82.57
2018-02-10T04:22:25.800Z,82.48
2018-02-10T04:23:25.813Z,82.76
2018-02-10T04:24:26.078Z,82.39
2018-02-10T04:25:26.090Z,82.67
2018-02-10T04:26:25.850Z,82.39
2018-02-10T04:27:26.119Z,83.14
2018-02-10T04:28:26.128Z,83.39
2018-02-10T04:29:25.891Z,83.05
2018-02-10T04:30:25.906Z,82.95
2018-02-10T04:31:26.165Z,82.39
2018-02-10T04:32:25.928Z,82.39
2018-02-10T04:33:25.941Z,82.57
2018-02-10T04:34:26.203Z,82.67
2018-02-10T04:35:26.219Z,82.67
2018-02-10T04:36:26.228Z,82.2
2018-02-10T04:37:25.990Z,82.48
2018-02-10T04:38:26.001Z,82.29
2018-02-10T04:39:26.287Z,82.39
2018-02-10T04:40:26.291Z,82.48
2018-02-10T04:41:26.295Z,83.01
2018-02-10T04:42:26.303Z,82.67
2018-02-10T04:43:26.066Z,82.48
2018-02-10T04:44:26.081Z,82.29
2018-02-10T04:45:26.093Z,82.29
2018-02-10T04:46:26.105Z,82.2
2018-02-10T04:47:26.115Z,82.2
2018-02-10T04:48:26.383Z,82.67
2018-02-10T04:49:26.393Z,82.91
2018-02-10T04:50:26.405Z,82.86
2018-02-10T04:51:26.415Z,82.48
2018-02-10T04:52:26.181Z,82.82
2018-02-10T04:53:26.445Z,83.05
2018-02-10T04:54:26.455Z,82.67
2018-02-10T04:55:26.469Z,82.29
2018-02-10T04:56:26.229Z,82.39
2018-02-10T04:57:26.584Z,82.01
2018-02-10T04:58:26.506Z,82.39
2018-02-10T04:59:26.267Z,82.48
2018-02-10T05:00:26.547Z,82.29
2018-02-10T05:01:26.543Z,82.67
2018-02-10T05:02:26.307Z,82.67
2018-02-10T05:03:26.587Z,82.39
2018-02-10T05:04:26.585Z,82.86
2018-02-10T05:05:26.608Z,83.2
2018-02-10T05:06:26.605Z,83.24
2018-02-10T05:07:26.624Z,82.67
2018-02-10T05:08:26.383Z,82.57
2018-02-10T05:09:26.647Z,82.76
2018-02-10T05:10:26.407Z,82.76
2018-02-10T05:11:26.671Z,82.95
2018-02-10T05:12:26.683Z,82.95
2018-02-10T05:13:26.698Z,82.86
2018-02-10T05:14:26.710Z,82.67
2018-02-10T05:15:26.481Z,82.57
2018-02-10T05:16:26.737Z,82.67
2018-02-10T05:17:26.748Z,82.57
2018-02-10T05:18:26.760Z,82.91
2018-02-10T05:19:26.524Z,83.01
2018-02-10T05:20:26.785Z,83.05
2018-02-10T05:21:26.546Z,82.91
2018-02-10T05:22:26.811Z,82.67
2018-02-10T05:23:26.819Z,82.76
2018-02-10T05:24:26.583Z,82.57
2018-02-10T05:25:26.896Z,82.86
2018-02-10T05:26:26.607Z,82.95
2018-02-10T05:27:26.621Z,82.76
2018-02-10T05:28:26.880Z,82.39
2018-02-10T05:29:26.655Z,82.39
2018-02-10T05:30:26.656Z,81.63
2018-02-10T05:31:26.926Z,81.92
2018-02-10T05:32:26.684Z,81.92
2018-02-10T05:33:26.948Z,81.63
2018-02-10T05:34:26.967Z,82.01
2018-02-10T05:35:26.724Z,82.01
2018-02-10T05:36:26.986Z,81.82
2018-02-10T05:37:26.769Z,81.82
2018-02-10T05:38:26.772Z,81.63
2018-02-10T05:39:26.773Z,81.92
2018-02-10T05:40:26.786Z,81.82
2018-02-10T05:41:26.798Z,82.39
2018-02-10T05:42:27.063Z,82.29
2018-02-10T05:43:26.827Z,81.63
2018-02-10T05:44:26.870Z,81.25
2018-02-10T05:45:26.851Z,81.63
2018-02-10T05:46:27.111Z,81.82
2018-02-10T05:47:26.874Z,82.1
2018-02-10T05:48:26.886Z,82.01
2018-02-10T05:49:27.149Z,81.53
2018-02-10T05:50:26.913Z,81.53
2018-02-10T05:51:27.174Z,81.82
2018-02-10T05:52:26.943Z,82.01
2018-02-10T05:53:27.207Z,81.06
2018-02-10T05:54:26.961Z,81.25
2018-02-10T05:55:27.230Z,81.44
2018-02-10T05:56:27.241Z,81.44
2018-02-10T05:57:27.001Z,81.44
2018-02-10T05:58:27.267Z,81.06
2018-02-10T05:59:27.028Z,81.44
2018-02-10T06:00:27.041Z,81.72
2018-02-10T06:01:27.057Z,82.01
2018-02-10T06:02:27.067Z,81.72
2018-02-10T06:03:27.086Z,81.15
2018-02-10T06:04:27.093Z,81.15
2018-02-10T06:05:27.358Z,80.87
2018-02-10T06:06:27.374Z,81.15
2018-02-10T06:07:27.132Z,80.87
2018-02-10T06:08:27.142Z,80.87
2018-02-10T06:09:27.408Z,80.77
2018-02-10T06:10:27.171Z,81.15
2018-02-10T06:11:27.184Z,81.44
2018-02-10T06:12:27.470Z,81.25
2018-02-10T06:13:27.210Z,81.44
2018-02-10T06:14:27.426Z,81.82
2018-02-10T06:15:27.490Z,81.92
2018-02-10T06:16:27.248Z,81.63
2018-02-10T06:17:27.262Z,81.82
2018-02-10T06:18:27.525Z,81.53
2018-02-10T06:19:27.286Z,81.82
2018-02-10T06:20:27.321Z,81.72
2018-02-10T06:21:27.567Z,81.63
2018-02-10T06:22:27.580Z,81.06
2018-02-10T06:23:27.341Z,81.92
2018-02-10T06:24:27.604Z,81.34
2018-02-10T06:25:27.616Z,80.68
2018-02-10T06:26:27.658Z,80.87
2018-02-10T06:27:27.645Z,80.68
2018-02-10T06:28:27.666Z,79.74
2018-02-10T06:29:27.419Z,80.21
2018-02-10T06:30:27.686Z,79.93
2018-02-10T06:31:27.443Z,80.21
2018-02-10T06:32:27.790Z,80.11
2018-02-10T06:33:27.473Z,80.21
2018-02-10T06:34:27.733Z,80.49
2018-02-10T06:35:27.749Z,80.87
2018-02-10T06:36:27.764Z,81.06
2018-02-10T06:37:27.529Z,80.02
2018-02-10T06:38:27.535Z,80.3
2018-02-10T06:39:27.805Z,80.4
2018-02-10T06:40:27.840Z,80.4
2018-02-10T06:41:27.826Z,80.77
2018-02-10T06:42:27.845Z,79.93
2018-02-10T06:43:27.602Z,80.11
2018-02-10T06:44:27.869Z,80.77
2018-02-10T06:45:27.888Z,80.49
2018-02-10T06:46:27.890Z,80.58
2018-02-10T06:47:27.905Z,80.11
2018-02-10T06:48:27.666Z,80.3
2018-02-10T06:49:27.681Z,79.26
2018-02-10T06:50:27.952Z,79.36
2018-02-10T06:51:27.955Z,79.55
2018-02-10T06:52:27.970Z,79.36
2018-02-10T06:53:27.732Z,79.55
2018-02-10T06:54:27.743Z,79.45
2018-02-10T06:55:27.760Z,79.55
2018-02-10T06:56:27.770Z,79.11
2018-02-10T06:57:27.781Z,79.3
2018-02-10T06:58:28.049Z,79.21
2018-02-10T06:59:28.070Z,79.3
2018-02-10T07:00:27.826Z,79.21
2018-02-10T07:01:27.839Z,79.87
2018-02-10T07:02:27.847Z,79.36
2018-02-10T07:03:27.875Z,79.26
2018-02-10T07:04:27.872Z,79.64
2018-02-10T07:05:28.138Z,79.55
2018-02-10T07:06:28.153Z,79.45
2018-02-10T07:07:27.911Z,79.3
2018-02-10T07:08:27.925Z,79.45
2018-02-10T07:09:27.954Z,79.17
2018-02-10T07:10:27.956Z,79.17
2018-02-10T07:11:27.965Z,79.93
2018-02-10T07:12:28.246Z,80.21
2018-02-10T07:13:28.241Z,79.93
2018-02-10T07:14:28.001Z,80.21
2018-02-10T07:15:28.014Z,80.21
2018-02-10T07:16:28.038Z,80.02
2018-02-10T07:17:28.293Z,79.55
2018-02-10T07:18:28.060Z,79.55
2018-02-10T07:19:28.072Z,79.93
2018-02-10T07:20:28.085Z,79.55
2018-02-10T07:21:28.097Z,79.64
2018-02-10T07:22:28.362Z,79.45
2018-02-10T07:23:28.374Z,79.39
2018-02-10T07:24:28.391Z,79.58
2018-02-10T07:25:28.399Z,79.21
2018-02-10T07:26:28.163Z,78.73
2018-02-10T07:27:28.428Z,78.54
2018-02-10T07:28:28.438Z,78.16
2018-02-10T07:29:28.453Z,78.73
2018-02-10T07:30:28.214Z,78.26
2018-02-10T07:31:28.246Z,78.45
2018-02-10T07:32:28.494Z,78.16
2018-02-10T07:33:28.506Z,78.45
2018-02-10T07:34:28.517Z,78.35
2018-02-10T07:35:28.533Z,78.98
2018-02-10T07:36:28.551Z,79.02
2018-02-10T07:37:28.307Z,79.11
2018-02-10T07:38:28.328Z,79.58
2018-02-10T07:39:28.331Z,80.15
2018-02-10T07:40:28.595Z,79.68
2018-02-10T07:41:28.357Z,79.49
2018-02-10T07:42:28.371Z,78.35
2018-02-10T07:43:28.645Z,77.5
2018-02-10T07:44:28.647Z,77.97
2018-02-10T07:45:28.411Z,77.59
2018-02-10T07:46:28.680Z,77.69
2018-02-10T07:47:28.691Z,78.45
2018-02-10T07:48:28.704Z,78.07
2018-02-10T07:49:28.713Z,77.5
2018-02-10T07:50:28.727Z,78.64
2018-02-10T07:51:28.488Z,78.16
2018-02-10T07:52:28.757Z,78.26
2018-02-10T07:53:28.514Z,78.16
2018-02-10T07:54:28.531Z,78.5
2018-02-10T07:55:28.544Z,78.69
2018-02-10T07:56:28.807Z,78.03
2018-02-10T07:57:28.572Z,78.41
2018-02-10T07:58:28.834Z,78.88
2018-02-10T07:59:28.594Z,78.31
2018-02-10T08:00:28.619Z,78.54
2018-02-10T08:01:28.870Z,78.07
2018-02-10T08:02:28.632Z,78.45
2018-02-10T08:03:28.646Z,78.45
2018-02-10T08:04:28.914Z,78.45
2018-02-10T08:05:28.675Z,77.5
2018-02-10T08:06:28.936Z,77.59
2018-02-10T08:07:28.957Z,77.4
2018-02-10T08:08:28.962Z,77.5
2018-02-10T08:09:28.725Z,77.69
2018-02-10T08:10:28.738Z,77.78
2018-02-10T08:11:28.753Z,78.59
2018-02-10T08:12:29.016Z,78.16
2018-02-10T08:13:29.032Z,79.17
2018-02-10T08:14:29.060Z,79.17
2018-02-10T08:15:29.056Z,78.98
2018-02-10T08:16:29.070Z,79.07
2018-02-10T08:17:29.081Z,79.26
2018-02-10T08:18:28.845Z,79.11
2018-02-10T08:19:29.110Z,78.35
2018-02-10T08:20:29.151Z,78.07
2018-02-10T08:21:28.884Z,78.64
2018-02-10T08:22:28.911Z,78.16
2018-02-10T08:23:28.913Z,77.88
2018-02-10T08:24:28.922Z,77.5
2018-02-10T08:25:29.192Z,77.94
2018-02-10T08:26:29.203Z,79.17
2018-02-10T08:27:28.963Z,79.07
2018-02-10T08:28:28.991Z,78.88
2018-02-10T08:29:28.994Z,78.88
2018-02-10T08:30:29.256Z,79.17
2018-02-10T08:31:29.285Z,79.26
2018-02-10T08:32:29.284Z,78.5
2018-02-10T08:33:29.298Z,78.41
2018-02-10T08:34:29.057Z,78.98
2018-02-10T08:35:29.071Z,79.26
2018-02-10T08:36:29.536Z,79.45
2018-02-10T08:37:29.098Z,79.26
2018-02-10T08:38:29.111Z,79.36
2018-02-10T08:39:29.122Z,78.98
2018-02-10T08:40:29.388Z,79.07
2018-02-10T08:41:29.150Z,78.35
2018-02-10T08:42:29.161Z,78.16
2018-02-10T08:43:29.428Z,78.54
2018-02-10T08:44:29.189Z,77.97
2018-02-10T08:45:29.479Z,78.13
2018-02-10T08:46:29.467Z,78.31
2018-02-10T08:47:29.235Z,78.31
2018-02-10T08:48:29.495Z,79.07
2018-02-10T08:49:29.508Z,79.07
2018-02-10T08:50:29.540Z,78.35
2018-02-10T08:51:29.285Z,77.59
2018-02-10T08:52:29.559Z,78.07
2018-02-10T08:53:29.313Z,77.69
2018-02-10T08:54:29.321Z,76.84
2018-02-10T08:55:29.587Z,76.55
2018-02-10T08:56:29.603Z,77.12
2018-02-10T08:57:29.361Z,76.93
2018-02-10T08:58:29.627Z,76.84
2018-02-10T08:59:29.389Z,76.65
2018-02-10T09:00:29.401Z,76.93
2018-02-10T09:01:29.709Z,76.46
2018-02-10T09:02:29.680Z,76.84
2018-02-10T09:03:29.444Z,76.27
2018-02-10T09:04:29.477Z,76.46
2018-02-10T09:05:29.720Z,76.46
2018-02-10T09:06:29.483Z,76.36
2018-02-10T09:07:29.802Z,75.42
2018-02-10T09:08:29.509Z,75.51
2018-02-10T09:09:29.524Z,74.85
2018-02-10T09:10:29.537Z,75.51
2018-02-10T09:11:29.806Z,74.95
2018-02-10T09:12:29.564Z,74.18
2018-02-10T09:13:29.827Z,74.95
2018-02-10T09:14:29.595Z,74.85
2018-02-10T09:15:29.860Z,74.75
2018-02-10T09:16:29.866Z,74.18
2018-02-10T09:17:29.631Z,74.28
2018-02-10T09:18:29.643Z,74.18
2018-02-10T09:19:29.658Z,74.28
2018-02-10T09:20:29.955Z,74.75
2018-02-10T09:21:29.935Z,74.37
2018-02-10T09:22:29.948Z,74.56
2018-02-10T09:23:29.971Z,75.23
2018-02-10T09:24:29.975Z,74.85
2018-02-10T09:25:29.736Z,74.37
2018-02-10T09:26:30.021Z,74.66
2018-02-10T09:27:29.770Z,74.95
2018-02-10T09:28:30.030Z,74.75
2018-02-10T09:29:29.791Z,74.28
2018-02-10T09:30:30.055Z,74.37
2018-02-10T09:31:30.068Z,74.75
2018-02-10T09:32:30.080Z,74.95
2018-02-10T09:33:29.848Z,75.42
2018-02-10T09:34:29.854Z,75.04
2018-02-10T09:35:30.119Z,75.23
2018-02-10T09:36:30.135Z,74.75
2018-02-10T09:37:29.895Z,74.75
2018-02-10T09:38:29.910Z,74.41
2018-02-10T09:39:29.931Z,73.94
2018-02-10T09:40:30.195Z,73.37
2018-02-10T09:41:30.202Z,73.75
2018-02-10T09:42:29.965Z,71.85
2018-02-10T09:43:29.977Z,72.04
2018-02-10T09:44:30.241Z,71.95
2018-02-10T09:45:30.253Z,72.42
2018-02-10T09:46:30.273Z,72.71
2018-02-10T09:47:30.282Z,72.42
2018-02-10T09:48:30.297Z,72.33
2018-02-10T09:49:30.057Z,72.52
2018-02-10T09:50:30.073Z,72.52
2018-02-10T09:51:30.338Z,73.08
2018-02-10T09:52:30.349Z,72.61
2018-02-10T09:53:30.115Z,72.8
2018-02-10T09:54:30.378Z,73.08
2018-02-10T09:55:30.392Z,73.8
2018-02-10T09:56:30.400Z,73.61
2018-02-10T09:57:30.167Z,73.71
2018-02-10T09:58:30.184Z,73.84
2018-02-10T09:59:30.444Z,73.65
2018-02-10T10:00:30.461Z,73.56
2018-02-10T10:01:30.222Z,73.27
2018-02-10T10:02:30.510Z,71.95
2018-02-10T10:03:30.500Z,71.76
2018-02-10T10:04:30.263Z,71.47
2018-02-10T10:05:30.528Z,71.85
2018-02-10T10:06:30.289Z,71.85
2018-02-10T10:07:30.304Z,71.85
2018-02-10T10:08:30.576Z,71.57
2018-02-10T10:09:30.334Z,70.9
2018-02-10T10:10:30.596Z,70.34
2018-02-10T10:11:30.611Z,70.05
2018-02-10T10:12:30.376Z,69.77
2018-02-10T10:13:30.640Z,69.67
2018-02-10T10:14:30.653Z,68.95
2018-02-10T10:15:30.418Z,68.66
2018-02-10T10:16:30.450Z,68.38
2018-02-10T10:17:30.451Z,68.19
2018-02-10T10:18:30.710Z,67.81
2018-02-10T10:19:30.745Z,67.62
2018-02-10T10:20:30.742Z,66.67
2018-02-10T10:21:30.500Z,65.91
2018-02-10T10:22:30.765Z,66.1
2018-02-10T10:23:30.781Z,66.01
2018-02-10T10:24:30.798Z,65.63
2018-02-10T10:25:30.557Z,66.1
2018-02-10T10:26:30.824Z,65.82
2018-02-10T10:27:30.588Z,65.63
2018-02-10T10:28:30.600Z,65.06
2018-02-10T10:29:30.615Z,65.34
2018-02-10T10:30:30.630Z,65.63
2018-02-10T10:31:30.893Z,66.01
2018-02-10T10:32:30.657Z,64.49
2018-02-10T10:33:30.934Z,64.3
2018-02-10T10:34:30.935Z,64.59
2018-02-10T10:35:30.700Z,64.68
2018-02-10T10:36:30.715Z,65.53
2018-02-10T10:37:30.987Z,65.44
2018-02-10T10:38:30.997Z,66.2
2018-02-10T10:39:30.757Z,65.06
2018-02-10T10:40:30.775Z,63.92
2018-02-10T10:41:30.789Z,62.69
2018-02-10T10:42:30.803Z,63.26
2018-02-10T10:43:30.825Z,63.26
2018-02-10T10:44:31.085Z,63.2
2018-02-10T10:45:30.952Z,62.31
2018-02-10T10:46:31.108Z,62.21
2018-02-10T10:47:30.875Z,62.88
2018-02-10T10:48:31.160Z,63.54
2018-02-10T10:49:31.154Z,64.4
2018-02-10T10:50:30.915Z,64.3
2018-02-10T10:51:30.928Z,63.17
2018-02-10T10:52:30.946Z,62.88
2018-02-10T10:53:31.218Z,63.26
2018-02-10T10:54:31.227Z,63.35
2018-02-10T10:55:30.989Z,64.01
2018-02-10T10:56:31.257Z,64.2
2018-02-10T10:57:31.018Z,64.49
2018-02-10T10:58:31.285Z,63.73
2018-02-10T10:59:31.045Z,63.17
2018-02-10T11:00:31.179Z,62.88
2018-02-10T11:01:31.077Z,62.59
2018-02-10T11:02:31.353Z,62.82
2018-02-10T11:03:31.108Z,64.62
2018-02-10T11:04:31.375Z,64.81
2018-02-10T11:05:31.386Z,62.43
2018-02-10T11:06:31.149Z,61.01
2018-02-10T11:07:31.165Z,61.11
2018-02-10T11:08:31.181Z,61.96
2018-02-10T11:09:31.445Z,61.77
2018-02-10T11:10:31.211Z,61.68
2018-02-10T11:11:31.475Z,61.68
2018-02-10T11:12:31.489Z,60.85
2018-02-10T11:13:31.254Z,60.19
2018-02-10T11:14:31.539Z,60.19
2018-02-10T11:15:46.208Z,60.28
2018-02-10T11:16:31.546Z,59.33
2018-02-10T11:17:31.577Z,58.67
2018-02-10T11:18:31.326Z,59.33
2018-02-10T11:19:31.340Z,58.76
2018-02-10T11:20:31.357Z,58.95
2018-02-10T11:21:31.369Z,58.48
2018-02-10T11:22:31.640Z,58.67
2018-02-10T11:23:31.401Z,58.29
2018-02-10T11:24:31.669Z,57.72
2018-02-10T11:25:31.690Z,58.58
2018-02-10T11:26:31.699Z,57.62
2018-02-10T11:27:31.716Z,57.15
2018-02-10T11:28:31.736Z,57.34
2018-02-10T11:29:31.762Z,58.58
2018-02-10T11:30:31.514Z,57.62
2018-02-10T11:31:31.531Z,57.53
2018-02-10T11:32:31.797Z,58.07
2018-02-10T11:33:31.581Z,58.39
2018-02-10T11:34:31.832Z,57.62
2018-02-10T11:35:31.593Z,57.4
2018-02-10T11:36:31.606Z,56.93
2018-02-10T11:37:31.875Z,56.58
2018-02-10T11:38:31.893Z,57.03
2018-02-10T11:39:31.659Z,57.4
2018-02-10T11:40:31.668Z,57.69
2018-02-10T11:41:31.935Z,57.4
2018-02-10T11:42:31.953Z,57.5
2018-02-10T11:43:31.981Z,57.5
2018-02-10T11:44:31.731Z,58.64
2018-02-10T11:45:31.748Z,57.79
2018-02-10T11:46:32.014Z,57.21
2018-02-10T11:47:32.029Z,57.15
2018-02-10T11:48:31.793Z,56.01
2018-02-10T11:49:31.807Z,56.17
2018-02-10T11:50:31.823Z,56.74
2018-02-10T11:51:31.841Z,57.31
2018-02-10T11:52:31.856Z,57.69
2018-02-10T11:53:31.869Z,57.5
2018-02-10T11:54:32.144Z,57.31
2018-02-10T11:55:32.152Z,57.69
2018-02-10T11:56:32.165Z,57.59
2018-02-10T11:57:31.929Z,57.98
2018-02-10T11:58:31.949Z,57.88
2018-02-10T11:59:32.314Z,57.79
2018-02-10T12:00:31.974Z,58.07
2018-02-10T12:01:31.989Z,57.98
2018-02-10T12:02:32.260Z,57.88
2018-02-10T12:03:32.020Z,58.26
2018-02-10T12:04:32.287Z,58.64
2018-02-10T12:05:32.380Z,57.98
2018-02-10T12:06:32.063Z,58.04
2018-02-10T12:07:32.385Z,58.54
2018-02-10T12:08:32.092Z,57.98
2018-02-10T12:09:32.365Z,58.17
2018-02-10T12:10:32.375Z,58.26
2018-02-10T12:11:32.394Z,57.4
2018-02-10T12:12:32.407Z,57.4
2018-02-10T12:13:32.466Z,57.5
2018-02-10T12:14:32.187Z,57.4
2018-02-10T12:15:32.452Z,57.31
2018-02-10T12:16:32.467Z,57.79
2018-02-10T12:17:32.234Z,57.69
2018-02-10T12:18:32.245Z,57.98
2018-02-10T12:19:32.260Z,58.26
2018-02-10T12:20:32.539Z,58.45
2018-02-10T12:21:32.549Z,57.31
2018-02-10T12:22:32.558Z,57.21
2018-02-10T12:23:32.594Z,57.69
2018-02-10T12:24:32.333Z,57.21
2018-02-10T12:25:32.350Z,57.5
2018-02-10T12:26:32.615Z,57.79
2018-02-10T12:27:32.384Z,57.98
2018-02-10T12:28:32.645Z,58.45
2018-02-10T12:29:32.407Z,58.36
2018-02-10T12:30:32.729Z,57.79
2018-02-10T12:31:32.440Z,57.79
2018-02-10T12:32:32.706Z,57.79
2018-02-10T12:33:32.720Z,57.59
2018-02-10T12:34:32.488Z,57.69
2018-02-10T12:35:32.501Z,58.54
2018-02-10T12:36:32.516Z,57.88
2018-02-10T12:37:32.787Z,57.88
2018-02-10T12:38:32.800Z,57.31
2018-02-10T12:39:32.813Z,57.12
2018-02-10T12:40:32.834Z,57.15
2018-02-10T12:41:32.844Z,56.77
2018-02-10T12:42:32.612Z,55.63
2018-02-10T12:43:32.871Z,55.35
2018-02-10T12:44:32.899Z,55.06
2018-02-10T12:45:32.650Z,55.25
2018-02-10T12:46:32.920Z,55.16
2018-02-10T12:47:32.884Z,55.35
2018-02-10T12:48:32.946Z,55.63
2018-02-10T12:49:32.715Z,54.68
2018-02-10T12:50:32.756Z,54.97
2018-02-10T12:51:33.001Z,55.16
2018-02-10T12:52:32.765Z,54.87
2018-02-10T12:53:33.028Z,54.78
2018-02-10T12:54:32.792Z,55.25